sensor_id;sensor_type;location;lat;lon;timestamp;temperature;humidity
27795;DHT22;15176;50.844;4.412;2022-10-26T00:02:24;18.00;99.90
27795;DHT22;15176;50.844;4.412;2022-10-26T00:04:50;18.10;99.90
27795;DHT22;15176;50.844;4.412;2022-10-26T00:07:15;18.20;99.90
27795;DHT22;15176;50.844;4.412;2022-10-26T00:09:41;17.90;99.90
27795;DHT22;15176;50.844;4.412;2022-10-26T00:12:07;18.30;99.90
27795;DHT22;15176;50.844;4.412;2022-10-26T00:14:32;17.90;99.90
27795;DHT22;15176;50.844;4.412;2022-10-26T00:16:58;17.90;99.90
27795;DHT22;15176;50.844;4.412;2022-10-26T00:19:24;17.90;99.90
27795;DHT22;15176;50.844;4.412;2022-10-26T00:21:51;17.70;99.90
27795;DHT22;15176;50.844;4.412;2022-10-26T00:24:17;18.10;99.90
27795;DHT22;15176;50.844;4.412;2022-10-26T00:26:42;18.30;99.90
27795;DHT22;15176;50.844;4.412;2022-10-26T00:29:10;18.30;99.90
27795;DHT22;15176;50.844;4.412;2022-10-26T00:31:37;18.60;99.90
27795;DHT22;15176;50.844;4.412;2022-10-26T00:34:03;18.40;99.90
27795;DHT22;15176;50.844;4.412;2022-10-26T00:36:29;18.60;99.90
27795;DHT22;15176;50.844;4.412;2022-10-26T00:38:55;18.70;99.90
27795;DHT22;15176;50.844;4.412;2022-10-26T00:41:27;18.70;99.90
27795;DHT22;15176;50.844;4.412;2022-10-26T00:43:54;18.90;99.90
27795;DHT22;15176;50.844;4.412;2022-10-26T00:46:23;18.80;99.90
27795;DHT22;15176;50.844;4.412;2022-10-26T00:48:53;19.00;99.90
27795;DHT22;15176;50.844;4.412;2022-10-26T00:51:28;18.70;99.90
27795;DHT22;15176;50.844;4.412;2022-10-26T00:53:59;18.90;99.90
27795;DHT22;15176;50.844;4.412;2022-10-26T00:56:26;19.10;99.90
27795;DHT22;15176;50.844;4.412;2022-10-26T00:58:53;18.90;99.90
27795;DHT22;15176;50.844;4.412;2022-10-26T01:01:20;19.00;99.90
27795;DHT22;15176;50.844;4.412;2022-10-26T01:03:45;18.80;99.90
27795;DHT22;15176;50.844;4.412;2022-10-26T01:06:12;19.00;99.90
27795;DHT22;15176;50.844;4.412;2022-10-26T01:08:40;18.90;99.90
27795;DHT22;15176;50.844;4.412;2022-10-26T01:11:06;18.50;99.90
27795;DHT22;15176;50.844;4.412;2022-10-26T01:13:33;18.50;99.90
27795;DHT22;15176;50.844;4.412;2022-10-26T01:21:59;18.30;99.90
27795;DHT22;15176;50.844;4.412;2022-10-26T01:27:33;18.70;99.90
27795;DHT22;15176;50.844;4.412;2022-10-26T01:30:22;18.60;99.90
27795;DHT22;15176;50.844;4.412;2022-10-26T01:33:21;18.10;99.90
27795;DHT22;15176;50.844;4.412;2022-10-26T01:38:57;18.30;99.90
27795;DHT22;15176;50.844;4.412;2022-10-26T01:41:35;18.30;99.90
27795;DHT22;15176;50.844;4.412;2022-10-26T01:44:09;18.10;99.90
27795;DHT22;15176;50.844;4.412;2022-10-26T01:46:40;18.30;99.90
27795;DHT22;15176;50.844;4.412;2022-10-26T01:49:09;18.30;99.90
27795;DHT22;15176;50.844;4.412;2022-10-26T01:51:39;18.20;99.90
27795;DHT22;15176;50.844;4.412;2022-10-26T01:54:05;18.10;99.90
27795;DHT22;15176;50.844;4.412;2022-10-26T01:56:34;18.30;99.90
27795;DHT22;15176;50.844;4.412;2022-10-26T01:59:11;18.20;99.90
27795;DHT22;15176;50.844;4.412;2022-10-26T02:02:01;18.40;99.90
27795;DHT22;15176;50.844;4.412;2022-10-26T02:12:19;18.50;99.90
27795;DHT22;15176;50.844;4.412;2022-10-26T02:15:22;18.40;99.90
27795;DHT22;15176;50.844;4.412;2022-10-26T02:17:59;18.40;99.90
27795;DHT22;15176;50.844;4.412;2022-10-26T02:20:39;18.00;99.90
27795;DHT22;15176;50.844;4.412;2022-10-26T02:23:07;17.60;99.90
27795;DHT22;15176;50.844;4.412;2022-10-26T02:25:38;17.70;99.90
27795;DHT22;15176;50.844;4.412;2022-10-26T02:28:14;17.80;99.90
27795;DHT22;15176;50.844;4.412;2022-10-26T02:30:42;17.90;99.90
27795;DHT22;15176;50.844;4.412;2022-10-26T02:33:10;18.20;99.90
27795;DHT22;15176;50.844;4.412;2022-10-26T02:35:36;17.60;99.90
27795;DHT22;15176;50.844;4.412;2022-10-26T02:38:07;17.90;99.90
27795;DHT22;15176;50.844;4.412;2022-10-26T02:40:34;18.30;99.90
27795;DHT22;15176;50.844;4.412;2022-10-26T02:43:04;18.30;99.90
27795;DHT22;15176;50.844;4.412;2022-10-26T02:45:36;18.30;99.90
27795;DHT22;15176;50.844;4.412;2022-10-26T02:48:03;18.60;99.90
27795;DHT22;15176;50.844;4.412;2022-10-26T02:50:35;18.70;99.90
27795;DHT22;15176;50.844;4.412;2022-10-26T02:55:45;18.80;99.90
27795;DHT22;15176;50.844;4.412;2022-10-26T02:58:18;19.10;99.90
27795;DHT22;15176;50.844;4.412;2022-10-26T03:00:45;18.80;99.90
27795;DHT22;15176;50.844;4.412;2022-10-26T03:03:11;18.90;99.90
27795;DHT22;15176;50.844;4.412;2022-10-26T03:05:41;19.00;99.90
27795;DHT22;15176;50.844;4.412;2022-10-26T03:08:07;19.00;99.90
27795;DHT22;15176;50.844;4.412;2022-10-26T03:10:39;19.00;99.90
27795;DHT22;15176;50.844;4.412;2022-10-26T03:13:05;18.80;99.90
27795;DHT22;15176;50.844;4.412;2022-10-26T03:15:30;18.60;99.90
27795;DHT22;15176;50.844;4.412;2022-10-26T03:17:56;18.60;99.90
27795;DHT22;15176;50.844;4.412;2022-10-26T03:20:22;18.40;99.90
27795;DHT22;15176;50.844;4.412;2022-10-26T03:22:48;18.70;99.90
27795;DHT22;15176;50.844;4.412;2022-10-26T03:25:14;18.90;99.90
27795;DHT22;15176;50.844;4.412;2022-10-26T03:27:43;19.00;99.90
27795;DHT22;15176;50.844;4.412;2022-10-26T03:30:09;19.00;99.90
27795;DHT22;15176;50.844;4.412;2022-10-26T03:32:34;19.00;99.90
27795;DHT22;15176;50.844;4.412;2022-10-26T03:35:00;19.00;99.90
27795;DHT22;15176;50.844;4.412;2022-10-26T03:37:26;18.80;99.90
27795;DHT22;15176;50.844;4.412;2022-10-26T03:39:51;18.70;99.90
27795;DHT22;15176;50.844;4.412;2022-10-26T03:42:17;18.30;99.90
27795;DHT22;15176;50.844;4.412;2022-10-26T03:44:43;18.10;99.90
27795;DHT22;15176;50.844;4.412;2022-10-26T03:47:08;18.10;99.90
27795;DHT22;15176;50.844;4.412;2022-10-26T03:49:34;18.10;99.90
27795;DHT22;15176;50.844;4.412;2022-10-26T03:52:01;17.90;99.90
27795;DHT22;15176;50.844;4.412;2022-10-26T03:54:26;17.90;99.90
27795;DHT22;15176;50.844;4.412;2022-10-26T03:56:53;17.80;99.90
27795;DHT22;15176;50.844;4.412;2022-10-26T03:59:19;17.70;99.90
27795;DHT22;15176;50.844;4.412;2022-10-26T04:01:44;17.60;99.90
27795;DHT22;15176;50.844;4.412;2022-10-26T04:04:10;17.60;99.90
27795;DHT22;15176;50.844;4.412;2022-10-26T04:06:36;17.30;99.90
27795;DHT22;15176;50.844;4.412;2022-10-26T04:09:01;17.40;99.90
27795;DHT22;15176;50.844;4.412;2022-10-26T04:11:28;17.30;99.90
27795;DHT22;15176;50.844;4.412;2022-10-26T04:13:54;17.50;99.90
27795;DHT22;15176;50.844;4.412;2022-10-26T04:16:20;17.40;99.90
27795;DHT22;15176;50.844;4.412;2022-10-26T04:18:46;17.40;99.90
27795;DHT22;15176;50.844;4.412;2022-10-26T04:21:12;17.30;99.90
27795;DHT22;15176;50.844;4.412;2022-10-26T04:23:38;17.40;99.90
27795;DHT22;15176;50.844;4.412;2022-10-26T04:26:04;17.40;99.90
27795;DHT22;15176;50.844;4.412;2022-10-26T04:28:30;17.20;99.90
27795;DHT22;15176;50.844;4.412;2022-10-26T04:30:56;17.30;99.90
27795;DHT22;15176;50.844;4.412;2022-10-26T04:33:21;17.50;99.90
27795;DHT22;15176;50.844;4.412;2022-10-26T04:35:47;17.40;99.90
27795;DHT22;15176;50.844;4.412;2022-10-26T04:38:12;17.30;99.90
27795;DHT22;15176;50.844;4.412;2022-10-26T04:40:38;17.10;99.90
27795;DHT22;15176;50.844;4.412;2022-10-26T04:43:04;17.20;99.90
27795;DHT22;15176;50.844;4.412;2022-10-26T04:45:30;17.20;99.90
27795;DHT22;15176;50.844;4.412;2022-10-26T04:48:05;16.80;99.90
27795;DHT22;15176;50.844;4.412;2022-10-26T04:50:31;17.00;99.90
27795;DHT22;15176;50.844;4.412;2022-10-26T04:52:57;17.10;99.90
27795;DHT22;15176;50.844;4.412;2022-10-26T04:55:23;17.10;99.90
27795;DHT22;15176;50.844;4.412;2022-10-26T04:57:49;17.00;99.90
27795;DHT22;15176;50.844;4.412;2022-10-26T05:00:15;17.10;99.90
27795;DHT22;15176;50.844;4.412;2022-10-26T05:02:41;17.00;99.90
27795;DHT22;15176;50.844;4.412;2022-10-26T05:05:07;17.10;99.90
27795;DHT22;15176;50.844;4.412;2022-10-26T05:07:33;17.30;99.90
27795;DHT22;15176;50.844;4.412;2022-10-26T05:09:58;17.70;99.90
27795;DHT22;15176;50.844;4.412;2022-10-26T05:12:24;17.70;99.90
27795;DHT22;15176;50.844;4.412;2022-10-26T05:14:49;18.10;99.90
27795;DHT22;15176;50.844;4.412;2022-10-26T05:17:15;18.30;99.90
27795;DHT22;15176;50.844;4.412;2022-10-26T05:19:41;18.40;99.90
27795;DHT22;15176;50.844;4.412;2022-10-26T05:22:07;18.60;99.90
27795;DHT22;15176;50.844;4.412;2022-10-26T05:24:32;18.40;99.90
27795;DHT22;15176;50.844;4.412;2022-10-26T05:26:58;18.10;99.90
27795;DHT22;15176;50.844;4.412;2022-10-26T05:29:24;18.20;99.90
27795;DHT22;15176;50.844;4.412;2022-10-26T05:31:50;17.90;99.90
27795;DHT22;15176;50.844;4.412;2022-10-26T05:34:16;18.00;99.90
27795;DHT22;15176;50.844;4.412;2022-10-26T05:36:42;18.20;99.90
27795;DHT22;15176;50.844;4.412;2022-10-26T05:39:07;18.50;99.90
27795;DHT22;15176;50.844;4.412;2022-10-26T05:41:33;18.60;99.90
27795;DHT22;15176;50.844;4.412;2022-10-26T05:43:58;18.40;99.90
27795;DHT22;15176;50.844;4.412;2022-10-26T05:46:24;18.60;99.90
27795;DHT22;15176;50.844;4.412;2022-10-26T05:48:50;18.80;99.90
27795;DHT22;15176;50.844;4.412;2022-10-26T05:51:15;18.70;99.90
27795;DHT22;15176;50.844;4.412;2022-10-26T05:53:41;18.70;99.90
27795;DHT22;15176;50.844;4.412;2022-10-26T05:56:19;18.40;99.90
27795;DHT22;15176;50.844;4.412;2022-10-26T05:58:46;18.20;99.90
27795;DHT22;15176;50.844;4.412;2022-10-26T06:01:18;17.80;99.90
27795;DHT22;15176;50.844;4.412;2022-10-26T06:06:34;17.90;99.90
27795;DHT22;15176;50.844;4.412;2022-10-26T06:09:02;18.30;99.90
27795;DHT22;15176;50.844;4.412;2022-10-26T06:11:28;18.50;99.90
27795;DHT22;15176;50.844;4.412;2022-10-26T06:13:53;18.80;99.90
27795;DHT22;15176;50.844;4.412;2022-10-26T06:16:44;18.70;99.90
27795;DHT22;15176;50.844;4.412;2022-10-26T06:20:17;18.90;99.90
27795;DHT22;15176;50.844;4.412;2022-10-26T06:30:06;18.90;99.90
27795;DHT22;15176;50.844;4.412;2022-10-26T06:32:34;18.70;99.90
27795;DHT22;15176;50.844;4.412;2022-10-26T06:37:48;18.90;99.90
27795;DHT22;15176;50.844;4.412;2022-10-26T06:40:16;19.10;99.90
27795;DHT22;15176;50.844;4.412;2022-10-26T06:42:42;19.60;99.90
27795;DHT22;15176;50.844;4.412;2022-10-26T06:45:12;19.60;99.90
27795;DHT22;15176;50.844;4.412;2022-10-26T06:55:25;18.50;99.90
27795;DHT22;15176;50.844;4.412;2022-10-26T06:57:52;18.60;99.90
27795;DHT22;15176;50.844;4.412;2022-10-26T07:00:22;18.70;99.90
27795;DHT22;15176;50.844;4.412;2022-10-26T07:02:49;19.00;99.90
27795;DHT22;15176;50.844;4.412;2022-10-26T07:05:16;19.40;99.90
27795;DHT22;15176;50.844;4.412;2022-10-26T07:07:46;18.70;99.90
27795;DHT22;15176;50.844;4.412;2022-10-26T07:10:13;19.20;99.90
27795;DHT22;15176;50.844;4.412;2022-10-26T07:12:39;19.40;99.90
27795;DHT22;15176;50.844;4.412;2022-10-26T07:15:06;18.80;99.90
27795;DHT22;15176;50.844;4.412;2022-10-26T07:17:43;18.30;99.90
27795;DHT22;15176;50.844;4.412;2022-10-26T07:20:10;18.20;99.90
27795;DHT22;15176;50.844;4.412;2022-10-26T07:22:36;18.30;99.90
27795;DHT22;15176;50.844;4.412;2022-10-26T07:25:02;18.20;99.90
27795;DHT22;15176;50.844;4.412;2022-10-26T07:27:28;18.20;99.90
27795;DHT22;15176;50.844;4.412;2022-10-26T07:29:53;18.50;99.90
27795;DHT22;15176;50.844;4.412;2022-10-26T07:32:19;18.50;99.90
27795;DHT22;15176;50.844;4.412;2022-10-26T07:34:45;18.80;99.90
27795;DHT22;15176;50.844;4.412;2022-10-26T07:37:10;18.50;99.90
27795;DHT22;15176;50.844;4.412;2022-10-26T07:39:36;18.60;99.90
27795;DHT22;15176;50.844;4.412;2022-10-26T07:42:01;18.70;99.90
27795;DHT22;15176;50.844;4.412;2022-10-26T07:44:27;18.70;99.90
27795;DHT22;15176;50.844;4.412;2022-10-26T07:46:53;18.90;99.90
27795;DHT22;15176;50.844;4.412;2022-10-26T07:49:18;18.90;99.90
27795;DHT22;15176;50.844;4.412;2022-10-26T07:51:44;18.70;99.90
27795;DHT22;15176;50.844;4.412;2022-10-26T07:54:09;18.40;99.90
27795;DHT22;15176;50.844;4.412;2022-10-26T07:56:35;18.60;99.90
27795;DHT22;15176;50.844;4.412;2022-10-26T07:59:01;18.50;99.90
27795;DHT22;15176;50.844;4.412;2022-10-26T08:01:26;18.40;99.90
27795;DHT22;15176;50.844;4.412;2022-10-26T08:03:53;18.50;99.90
27795;DHT22;15176;50.844;4.412;2022-10-26T08:06:20;18.60;99.90
27795;DHT22;15176;50.844;4.412;2022-10-26T08:08:46;18.90;99.90
27795;DHT22;15176;50.844;4.412;2022-10-26T08:11:12;19.00;99.90
27795;DHT22;15176;50.844;4.412;2022-10-26T08:13:38;18.90;99.90
27795;DHT22;15176;50.844;4.412;2022-10-26T08:16:04;19.00;99.90
27795;DHT22;15176;50.844;4.412;2022-10-26T08:18:30;18.90;99.90
27795;DHT22;15176;50.844;4.412;2022-10-26T08:21:01;18.90;99.90
27795;DHT22;15176;50.844;4.412;2022-10-26T08:23:28;19.00;99.90
27795;DHT22;15176;50.844;4.412;2022-10-26T08:26:00;19.30;99.90
27795;DHT22;15176;50.844;4.412;2022-10-26T08:28:27;19.60;99.90
27795;DHT22;15176;50.844;4.412;2022-10-26T08:30:56;19.80;99.90
27795;DHT22;15176;50.844;4.412;2022-10-26T08:33:22;20.40;99.90
27795;DHT22;15176;50.844;4.412;2022-10-26T08:35:56;21.40;99.90
27795;DHT22;15176;50.844;4.412;2022-10-26T08:38:22;21.70;99.90
27795;DHT22;15176;50.844;4.412;2022-10-26T08:40:48;22.40;99.90
27795;DHT22;15176;50.844;4.412;2022-10-26T08:45:59;23.10;99.90
27795;DHT22;15176;50.844;4.412;2022-10-26T08:48:31;23.60;99.90
27795;DHT22;15176;50.844;4.412;2022-10-26T08:51:01;24.10;99.90
27795;DHT22;15176;50.844;4.412;2022-10-26T08:53:32;23.90;99.90
27795;DHT22;15176;50.844;4.412;2022-10-26T08:56:10;24.50;99.90
27795;DHT22;15176;50.844;4.412;2022-10-26T08:58:47;25.10;99.90
27795;DHT22;15176;50.844;4.412;2022-10-26T09:01:15;25.50;99.90
27795;DHT22;15176;50.844;4.412;2022-10-26T09:03:41;25.00;99.90
27795;DHT22;15176;50.844;4.412;2022-10-26T09:06:17;25.00;99.90
27795;DHT22;15176;50.844;4.412;2022-10-26T09:09:01;24.80;99.90
27795;DHT22;15176;50.844;4.412;2022-10-26T09:11:46;25.20;99.90
27795;DHT22;15176;50.844;4.412;2022-10-26T09:14:30;25.30;99.90
27795;DHT22;15176;50.844;4.412;2022-10-26T09:22:29;25.70;99.90
27795;DHT22;15176;50.844;4.412;2022-10-26T09:25:04;26.00;99.90
27795;DHT22;15176;50.844;4.412;2022-10-26T09:27:41;26.10;99.90
27795;DHT22;15176;50.844;4.412;2022-10-26T09:30:19;26.40;99.90
27795;DHT22;15176;50.844;4.412;2022-10-26T09:32:55;26.40;99.90
27795;DHT22;15176;50.844;4.412;2022-10-26T09:35:24;26.70;99.90
27795;DHT22;15176;50.844;4.412;2022-10-26T09:43:23;27.60;98.30
27795;DHT22;15176;50.844;4.412;2022-10-26T09:45:51;27.60;97.30
27795;DHT22;15176;50.844;4.412;2022-10-26T09:48:37;27.70;97.30
27795;DHT22;15176;50.844;4.412;2022-10-26T09:51:05;27.60;97.60
27795;DHT22;15176;50.844;4.412;2022-10-26T09:53:31;28.10;95.90
27795;DHT22;15176;50.844;4.412;2022-10-26T09:56:07;27.40;96.80
27795;DHT22;15176;50.844;4.412;2022-10-26T09:58:45;27.60;96.90
27795;DHT22;15176;50.844;4.412;2022-10-26T10:01:30;27.70;96.50
27795;DHT22;15176;50.844;4.412;2022-10-26T10:09:34;27.40;95.80
27795;DHT22;15176;50.844;4.412;2022-10-26T10:12:03;27.80;95.00
27795;DHT22;15176;50.844;4.412;2022-10-26T10:14:38;27.70;95.30
27795;DHT22;15176;50.844;4.412;2022-10-26T10:17:05;27.60;95.60
27795;DHT22;15176;50.844;4.412;2022-10-26T10:19:37;27.70;95.30
27795;DHT22;15176;50.844;4.412;2022-10-26T10:27:21;28.50;92.90
27795;DHT22;15176;50.844;4.412;2022-10-26T10:29:49;28.30;92.20
27795;DHT22;15176;50.844;4.412;2022-10-26T10:34:43;28.00;90.60
27795;DHT22;15176;50.844;4.412;2022-10-26T10:39:47;28.50;90.80
27795;DHT22;15176;50.844;4.412;2022-10-26T10:42:20;28.60;89.80
27795;DHT22;15176;50.844;4.412;2022-10-26T10:44:50;27.90;90.90
27795;DHT22;15176;50.844;4.412;2022-10-26T10:47:28;28.00;90.40
27795;DHT22;15176;50.844;4.412;2022-10-26T10:50:14;27.50;91.30
27795;DHT22;15176;50.844;4.412;2022-10-26T10:52:40;27.60;91.40
27795;DHT22;15176;50.844;4.412;2022-10-26T10:55:17;27.80;90.70
27795;DHT22;15176;50.844;4.412;2022-10-26T11:00:37;27.40;92.00
27795;DHT22;15176;50.844;4.412;2022-10-26T11:08:49;26.50;93.00
27795;DHT22;15176;50.844;4.412;2022-10-26T11:19:29;25.80;96.20
27795;DHT22;15176;50.844;4.412;2022-10-26T11:21:57;25.60;97.30
27795;DHT22;15176;50.844;4.412;2022-10-26T11:24:27;25.70;96.60
27795;DHT22;15176;50.844;4.412;2022-10-26T11:27:33;25.50;97.40
27795;DHT22;15176;50.844;4.412;2022-10-26T11:32:40;25.50;98.40
27795;DHT22;15176;50.844;4.412;2022-10-26T11:35:15;25.80;97.00
27795;DHT22;15176;50.844;4.412;2022-10-26T11:41:09;26.00;96.70
27795;DHT22;15176;50.844;4.412;2022-10-26T11:43:40;26.10;96.80
27795;DHT22;15176;50.844;4.412;2022-10-26T11:49:16;25.40;98.40
27795;DHT22;15176;50.844;4.412;2022-10-26T11:52:07;26.00;96.90
27795;DHT22;15176;50.844;4.412;2022-10-26T11:54:43;26.20;96.30
27795;DHT22;15176;50.844;4.412;2022-10-26T11:57:13;26.30;96.30
27795;DHT22;15176;50.844;4.412;2022-10-26T11:59:47;26.00;96.70
27795;DHT22;15176;50.844;4.412;2022-10-26T12:02:21;26.10;96.20
27795;DHT22;15176;50.844;4.412;2022-10-26T12:04:55;26.00;96.70
27795;DHT22;15176;50.844;4.412;2022-10-26T12:07:29;25.70;97.10
27795;DHT22;15176;50.844;4.412;2022-10-26T12:09:56;26.00;96.50
27795;DHT22;15176;50.844;4.412;2022-10-26T12:12:44;25.90;97.20
27795;DHT22;15176;50.844;4.412;2022-10-26T12:17:54;26.40;96.00
27795;DHT22;15176;50.844;4.412;2022-10-26T12:20:47;26.70;95.30
27795;DHT22;15176;50.844;4.412;2022-10-26T12:23:16;26.90;95.10
27795;DHT22;15176;50.844;4.412;2022-10-26T12:25:42;27.10;94.20
27795;DHT22;15176;50.844;4.412;2022-10-26T12:28:47;27.00;94.50
27795;DHT22;15176;50.844;4.412;2022-10-26T12:31:39;27.10;94.20
27795;DHT22;15176;50.844;4.412;2022-10-26T12:34:12;27.20;94.10
27795;DHT22;15176;50.844;4.412;2022-10-26T12:39:35;27.50;93.30
27795;DHT22;15176;50.844;4.412;2022-10-26T13:00:13;28.10;91.10
27795;DHT22;15176;50.844;4.412;2022-10-26T13:06:01;27.20;92.10
27795;DHT22;15176;50.844;4.412;2022-10-26T13:08:49;26.70;93.00
27795;DHT22;15176;50.844;4.412;2022-10-26T13:11:31;26.60;93.40
27795;DHT22;15176;50.844;4.412;2022-10-26T13:14:04;27.00;93.00
27795;DHT22;15176;50.844;4.412;2022-10-26T13:16:34;27.40;92.30
27795;DHT22;15176;50.844;4.412;2022-10-26T13:19:00;26.40;93.50
27795;DHT22;15176;50.844;4.412;2022-10-26T13:21:26;26.30;94.30
27795;DHT22;15176;50.844;4.412;2022-10-26T13:26:21;26.60;93.70
27795;DHT22;15176;50.844;4.412;2022-10-26T13:28:53;26.00;95.00
27795;DHT22;15176;50.844;4.412;2022-10-26T13:33:45;26.10;95.20
27795;DHT22;15176;50.844;4.412;2022-10-26T13:36:26;25.90;95.60
27795;DHT22;15176;50.844;4.412;2022-10-26T13:38:53;25.70;96.20
27795;DHT22;15176;50.844;4.412;2022-10-26T13:41:35;26.10;94.90
27795;DHT22;15176;50.844;4.412;2022-10-26T13:44:05;25.90;95.10
27795;DHT22;15176;50.844;4.412;2022-10-26T13:46:35;25.60;96.40
27795;DHT22;15176;50.844;4.412;2022-10-26T13:49:19;25.70;96.60
27795;DHT22;15176;50.844;4.412;2022-10-26T13:51:49;25.50;96.80
27795;DHT22;15176;50.844;4.412;2022-10-26T13:57:28;25.10;97.70
27795;DHT22;15176;50.844;4.412;2022-10-26T13:59:56;25.30;97.90
27795;DHT22;15176;50.844;4.412;2022-10-26T14:02:25;25.30;97.40
27795;DHT22;15176;50.844;4.412;2022-10-26T14:05:03;25.40;97.10
27795;DHT22;15176;50.844;4.412;2022-10-26T14:07:43;24.80;98.90
27795;DHT22;15176;50.844;4.412;2022-10-26T14:12:49;24.90;99.00
27795;DHT22;15176;50.844;4.412;2022-10-26T14:15:21;24.70;99.40
27795;DHT22;15176;50.844;4.412;2022-10-26T14:17:51;24.50;99.90
27795;DHT22;15176;50.844;4.412;2022-10-26T14:20:20;24.70;99.80
27795;DHT22;15176;50.844;4.412;2022-10-26T14:22:47;24.70;99.90
27795;DHT22;15176;50.844;4.412;2022-10-26T14:25:24;24.70;99.90
27795;DHT22;15176;50.844;4.412;2022-10-26T14:27:51;24.70;99.90
27795;DHT22;15176;50.844;4.412;2022-10-26T14:30:29;24.00;99.90
27795;DHT22;15176;50.844;4.412;2022-10-26T14:32:55;23.90;99.90
27795;DHT22;15176;50.844;4.412;2022-10-26T14:35:32;23.50;99.90
27795;DHT22;15176;50.844;4.412;2022-10-26T14:38:10;23.50;99.90
27795;DHT22;15176;50.844;4.412;2022-10-26T14:40:39;23.50;99.90
27795;DHT22;15176;50.844;4.412;2022-10-26T14:43:05;23.10;99.90
27795;DHT22;15176;50.844;4.412;2022-10-26T14:45:34;23.20;99.90
27795;DHT22;15176;50.844;4.412;2022-10-26T14:48:01;22.90;99.90
27795;DHT22;15176;50.844;4.412;2022-10-26T14:50:28;23.10;99.90
27795;DHT22;15176;50.844;4.412;2022-10-26T14:53:13;23.10;99.90
27795;DHT22;15176;50.844;4.412;2022-10-26T14:55:48;23.10;99.90
27795;DHT22;15176;50.844;4.412;2022-10-26T14:58:38;23.20;99.90
27795;DHT22;15176;50.844;4.412;2022-10-26T15:03:57;23.10;99.90
27795;DHT22;15176;50.844;4.412;2022-10-26T15:09:00;22.90;99.90
27795;DHT22;15176;50.844;4.412;2022-10-26T15:11:29;23.10;99.90
27795;DHT22;15176;50.844;4.412;2022-10-26T15:13:56;22.80;99.90
27795;DHT22;15176;50.844;4.412;2022-10-26T15:16:24;22.90;99.90
27795;DHT22;15176;50.844;4.412;2022-10-26T15:18:57;22.70;99.90
27795;DHT22;15176;50.844;4.412;2022-10-26T15:21:31;22.70;99.90
27795;DHT22;15176;50.844;4.412;2022-10-26T15:23:59;22.70;99.90
27795;DHT22;15176;50.844;4.412;2022-10-26T15:26:25;22.70;99.90
27795;DHT22;15176;50.844;4.412;2022-10-26T15:28:51;22.60;99.90
27795;DHT22;15176;50.844;4.412;2022-10-26T15:36:30;22.40;99.90
27795;DHT22;15176;50.844;4.412;2022-10-26T15:38:57;22.50;99.90
27795;DHT22;15176;50.844;4.412;2022-10-26T15:41:31;22.30;99.90
27795;DHT22;15176;50.844;4.412;2022-10-26T15:43:59;22.30;99.90
27795;DHT22;15176;50.844;4.412;2022-10-26T15:46:32;22.60;99.90
27795;DHT22;15176;50.844;4.412;2022-10-26T15:49:00;22.30;99.90
27795;DHT22;15176;50.844;4.412;2022-10-26T15:51:27;22.40;99.90
27795;DHT22;15176;50.844;4.412;2022-10-26T15:53:56;22.60;99.90
27795;DHT22;15176;50.844;4.412;2022-10-26T15:56:23;22.60;99.90
27795;DHT22;15176;50.844;4.412;2022-10-26T15:58:50;22.50;99.90
27795;DHT22;15176;50.844;4.412;2022-10-26T16:01:20;22.60;99.90
27795;DHT22;15176;50.844;4.412;2022-10-26T16:03:46;22.40;99.90
27795;DHT22;15176;50.844;4.412;2022-10-26T16:06:26;22.50;99.90
27795;DHT22;15176;50.844;4.412;2022-10-26T16:08:55;22.60;99.90
27795;DHT22;15176;50.844;4.412;2022-10-26T16:11:21;22.80;99.90
27795;DHT22;15176;50.844;4.412;2022-10-26T16:13:47;22.80;99.90
27795;DHT22;15176;50.844;4.412;2022-10-26T16:16:17;22.50;99.90
27795;DHT22;15176;50.844;4.412;2022-10-26T16:18:44;22.30;99.90
27795;DHT22;15176;50.844;4.412;2022-10-26T16:21:14;22.30;99.90
27795;DHT22;15176;50.844;4.412;2022-10-26T16:23:40;22.10;99.90
27795;DHT22;15176;50.844;4.412;2022-10-26T16:26:07;22.30;99.90
27795;DHT22;15176;50.844;4.412;2022-10-26T16:28:33;22.10;99.90
27795;DHT22;15176;50.844;4.412;2022-10-26T16:31:00;22.40;99.90
27795;DHT22;15176;50.844;4.412;2022-10-26T16:33:26;22.60;99.90
27795;DHT22;15176;50.844;4.412;2022-10-26T16:35:56;22.70;99.90
27795;DHT22;15176;50.844;4.412;2022-10-26T16:38:23;22.70;99.90
27795;DHT22;15176;50.844;4.412;2022-10-26T16:40:49;22.80;99.90
27795;DHT22;15176;50.844;4.412;2022-10-26T16:43:15;22.80;99.90
27795;DHT22;15176;50.844;4.412;2022-10-26T16:45:40;22.70;99.90
27795;DHT22;15176;50.844;4.412;2022-10-26T16:48:08;22.60;99.90
27795;DHT22;15176;50.844;4.412;2022-10-26T16:50:39;22.70;99.90
27795;DHT22;15176;50.844;4.412;2022-10-26T16:53:04;22.40;99.90
27795;DHT22;15176;50.844;4.412;2022-10-26T16:55:30;22.30;99.90
27795;DHT22;15176;50.844;4.412;2022-10-26T16:57:56;22.30;99.90
27795;DHT22;15176;50.844;4.412;2022-10-26T17:00:22;22.10;99.90
27795;DHT22;15176;50.844;4.412;2022-10-26T17:02:48;22.40;99.90
27795;DHT22;15176;50.844;4.412;2022-10-26T17:05:13;22.10;99.90
27795;DHT22;15176;50.844;4.412;2022-10-26T17:07:39;22.30;99.90
27795;DHT22;15176;50.844;4.412;2022-10-26T17:10:05;22.40;99.90
27795;DHT22;15176;50.844;4.412;2022-10-26T17:12:31;22.30;99.90
27795;DHT22;15176;50.844;4.412;2022-10-26T17:14:56;22.40;99.90
27795;DHT22;15176;50.844;4.412;2022-10-26T17:17:24;22.30;99.90
27795;DHT22;15176;50.844;4.412;2022-10-26T17:19:50;21.90;99.90
27795;DHT22;15176;50.844;4.412;2022-10-26T17:22:16;22.00;99.90
27795;DHT22;15176;50.844;4.412;2022-10-26T17:24:41;21.90;99.90
27795;DHT22;15176;50.844;4.412;2022-10-26T17:27:07;22.10;99.90
27795;DHT22;15176;50.844;4.412;2022-10-26T17:29:33;22.40;99.90
27795;DHT22;15176;50.844;4.412;2022-10-26T17:31:58;21.90;99.90
27795;DHT22;15176;50.844;4.412;2022-10-26T17:34:24;22.10;99.90
27795;DHT22;15176;50.844;4.412;2022-10-26T17:36:50;22.00;99.90
27795;DHT22;15176;50.844;4.412;2022-10-26T17:39:15;22.10;99.90
27795;DHT22;15176;50.844;4.412;2022-10-26T17:41:44;22.20;99.90
27795;DHT22;15176;50.844;4.412;2022-10-26T17:44:10;22.10;99.90
27795;DHT22;15176;50.844;4.412;2022-10-26T17:46:36;22.10;99.90
27795;DHT22;15176;50.844;4.412;2022-10-26T17:49:01;21.90;99.90
27795;DHT22;15176;50.844;4.412;2022-10-26T17:51:36;22.30;99.90
27795;DHT22;15176;50.844;4.412;2022-10-26T17:54:02;22.50;99.90
27795;DHT22;15176;50.844;4.412;2022-10-26T17:56:30;22.60;99.90
27795;DHT22;15176;50.844;4.412;2022-10-26T17:58:58;22.20;99.90
27795;DHT22;15176;50.844;4.412;2022-10-26T18:01:24;22.20;99.90
27795;DHT22;15176;50.844;4.412;2022-10-26T18:03:52;22.00;99.90
27795;DHT22;15176;50.844;4.412;2022-10-26T18:06:18;21.70;99.90
27795;DHT22;15176;50.844;4.412;2022-10-26T18:08:44;21.60;99.90
27795;DHT22;15176;50.844;4.412;2022-10-26T18:11:18;21.50;99.90
27795;DHT22;15176;50.844;4.412;2022-10-26T18:13:45;21.60;99.90